• Join FlightAware (Why Join?)
  • Login
  • US Flag 
12:29PM EDT


 

Airport Tracker/Info


-or-


 

Live Flight TrackerFlight Track Log ✈ N211RN ✈ 23-Apr-2014 ✈ KAFJ - KDAB

Flight Track Log - Related Links

Times and Time Zones

All times are in EDT time to prevent confusion due to time zone crossing. See the N211RN flight status page for this flight to view local times or setup timezone preferences in your user account.

Time Position Orientation Groundspeed Altitude Reporting Facility
EDT Latitude Longitude Course Direction KTS MPH feet Rate Location/Type
12:10PM 40.0947 -80.3486 180° South 242 278 5,200  Level Cleveland Center
12:11PM 40.0250 -80.3408 175° South 250 288 8,100 3,000 Climbing Cleveland Center
12:12PM 39.9253 -80.3319 176° South 294 338 11,400 2,700 Climbing Cleveland Center
12:13PM 39.8281 -80.3231 176° South 341 392 13,700 2,220 Climbing Cleveland Center
12:14PM 39.7208 -80.3108 175° South 378 435 16,000 2,220 Climbing Cleveland Center
12:15PM 39.3421 -80.2667 180° South  Level FlightAware Approximate
12:15PM 39.6092 -80.3025 177° South 400 460 18,300  Level Cleveland Center
12:16PM 39.4883 -80.2892 175° South 432 497 20,400 2,100 Climbing Cleveland Center
12:17PM 39.3661 -80.2772 176° South 440 506 22,700 1,980 Climbing Cleveland Center
12:18PM 39.2106 -80.2694 178° South 469 540 24,600 1,500 Climbing Cleveland Center
12:19PM 39.0803 -80.2881 186° South 472 543 25,900 1,080 Climbing Cleveland Center
12:20PM 38.9408 -80.3128 188° South 508 585 26,900 1,020 Climbing Cleveland Center
12:21PM 38.8325 -80.3275 186° South 489 563 27,900 540 Climbing Washington Center
12:22PM 38.6897 -80.3556 189° South 506 582 28,000 60 Climbing Washington Center
12:23PM 38.5303 -80.3769 186° South 524 603 28,100 1,020 Climbing Washington Center
12:24PM 38.3894 -80.4050 189° South 524 603 30,100 1,980 Climbing Washington Center
12:25PM 38.2547 -80.4361 190° South 511 588 32,100 1,980 Climbing Washington Center
12:26PM 38.1311 -80.4517 186° South 506 582 34,100 1,800 Climbing Washington Center
12:27PM 37.9947 -80.4719 187° South 506 582 35,800 1,800 Climbing Washington Center
12:28PM 37.8625 -80.4897 186° South 501 577 37,700 1,620 Climbing Washington Center
12:30PM 37.6589 -80.5111 185° South 474 545 40,000 900 Climbing Atlanta Center
12:31PM 37.5136 -80.5333 187° South 474 545 40,000  Level Atlanta Center
12:32PM 37.3786 -80.5497 186° South 480 552 40,000  Level Atlanta Center
12:33PM 37.2417 -80.5689 186° South 486 559 40,000  Level Atlanta Center
12:34PM 37.1169 -80.5850 186° South 499 574 40,000  Level Atlanta Center
12:35PM 36.9797 -80.6014 185° South 499 574 40,000  Level Atlanta Center
12:36PM 36.8469 -80.6175 186° South 499 574 40,000  Level Atlanta Center
12:37PM 36.6994 -80.6367 186° South 491 565 40,000  Level Atlanta Center
12:38PM 36.5622 -80.6528 185° South 491 565 40,000  Level Atlanta Center
12:39PM 36.4272 -80.6714 186° South 491 565 40,000  Level Atlanta Center
12:40PM 36.2900 -80.6875 185° South 496 571 40,000  Level Atlanta Center
12:41PM 36.1797 -80.7025 186° South 496 571 40,000  Level Atlanta Center
12:42PM 36.0303 -80.7239 187° South 496 571 40,000  Level Atlanta Center
12:43PM 35.8931 -80.7397 185° South 496 571 40,000  Level Atlanta Center
12:44PM 35.7536 -80.7583 186° South 501 577 40,000  Level Atlanta Center
12:45PM 35.6144 -80.7767 186° South 501 577 40,000  Level Atlanta Center
12:46PM 35.4772 -80.7922 185° South 501 577 40,000  Level Atlanta Center
12:47PM 35.3378 -80.8131 187° South 501 577 40,000 600 Level Atlanta Center
12:50PM 34.8342 -80.8717 185° South 443 510 43,000 600 Climbing Jacksonville Center
12:51PM 34.7031 -80.8850 185° South 448 516 43,000  Level Jacksonville Center
12:52PM 34.5758 -80.8931 183° South 462 532 43,000  Level Jacksonville Center
12:53PM 34.4467 -80.9036 184° South 462 532 43,000  Level Jacksonville Center
12:54PM 34.3194 -80.9064 181° South 462 532 43,000  Level Jacksonville Center
12:55PM 34.1944 -80.9192 185° South 462 532 43,000  Level Jacksonville Center
12:56PM 34.0611 -80.9272 183° South 462 532 43,000  Level Jacksonville Center
12:57PM 33.9319 -80.9378 184° South 462 532 43,000  Level Jacksonville Center
12:58PM 33.8006 -80.9481 184° South 467 537 43,000  Level Jacksonville Center
12:59PM 33.6714 -80.9561 183° South 478 550 43,000  Level Jacksonville Center
01:00PM 33.5378 -80.9664 184° South 478 550 43,000  Level Jacksonville Center
01:01PM 33.4086 -80.9742 183° South 478 550 43,000  Level Jacksonville Center
01:02PM 33.2794 -80.9844 184° South 478 550 43,000  Level Jacksonville Center
01:03PM 33.1522 -80.9919 183° South 478 550 43,000  Level Jacksonville Center
01:04PM 33.0250 -80.9997 183° South 472 543 43,000  Level Jacksonville Center
01:05PM 32.8958 -81.0100 184° South 467 537 43,000  Level Jacksonville Center
01:06PM 32.7686 -81.0175 183° South 462 532 43,000  Level Jacksonville Center
01:07PM 32.6433 -81.0250 183° South 462 532 43,000  Level Jacksonville Center
01:08PM 32.5161 -81.0325 183° South 462 532 43,000  Level Jacksonville Center
01:09PM 32.3786 -81.0428 184° South 457 526 43,000  Level Jacksonville Center
01:10PM 32.2533 -81.0503 183° South 457 526 43,000  Level Jacksonville Center
01:11PM 32.1367 -81.0575 183° South 464 534 43,000  Level Jacksonville Center
01:12PM 31.9925 -81.0628 182° South 471 542 43,000  Level Jacksonville Center
01:13PM 31.8675 -81.0725 184° South 458 527 43,000  Level Jacksonville Center
01:14PM 31.7547 -81.0797 183° South 453 521 43,000  Level Jacksonville Center
01:15PM 31.6172 -81.0922 184° South 453 521 43,000  Level Jacksonville Center
01:16PM 31.5025 -81.0967 182° South 459 528 43,000 -60 Level Jacksonville Center
01:17PM 31.3647 -81.1067 184° South 459 528 42,900 -1,080 Descending Jacksonville Center
01:18PM 31.2375 -81.1164 184° South 459 528 40,900 -2,100 Descending Jacksonville Center
01:19PM 31.1081 -81.1236 183° South 459 528 38,700 -2,340 Descending Jacksonville Center
01:20PM 30.9747 -81.1333 184° South 465 535 36,300 -2,460 Descending Jacksonville Center
01:21PM 30.8411 -81.1408 183° South 477 549 33,800 -2,580 Descending Jacksonville Center
01:22PM 30.7119 -81.1506 184° South 477 549 31,200 -2,280 Descending Jacksonville Center
01:23PM 30.5825 -81.1528 181° South 477 549 29,300 -1,500 Descending Jacksonville Center
01:24PM 30.4656 -81.1500 179° South 477 549 28,200 -1,260 Descending Jacksonville Center
01:25PM 30.3297 -81.1431 177° South 478 550 26,800 -1,500 Descending Jacksonville Center
01:26PM 30.1981 -81.1358 177° South 478 550 25,200 -1,680 Descending Jacksonville Center
01:27PM 30.0700 -81.0853 161° South 478 550 23,500 -1,740 Descending Jacksonville Center
01:28PM 29.9442 -81.0397 163° South 472 543 21,800 -1,920 Descending Jacksonville Center
01:29PM 29.8222 -80.9917 161° South 472 543 19,700 -2,220 Descending Jacksonville Center
01:30PM 29.7008 -80.9606 167° South 458 527 17,400 -2,280 Descending Jacksonville Center
01:31PM 29.5928 -81.0058 200° South 416 479 15,200 -2,460 Descending Jacksonville Center
01:32PM 29.5617 -81.0206 202° Southwest 390 449 14,300 -2,280 Descending Jacksonville Center
01:32PM 29.4953 -81.0458 198° South 400 460 13,000 -2,100 Descending Jacksonville Center
01:33PM 29.4683 -81.0583 202° Southwest 368 423 12,400 -1,020 Descending Jacksonville Center
01:33PM 29.3936 -81.0811 195° South 346 398 12,000 -360 Descending Jacksonville Center
01:34PM 29.3667 -81.0936 202° Southwest 328 377 12,000 -1,500 Level Jacksonville Center
01:34PM 29.3083 -81.1136 197° South 325 374 10,500 -2,280 Descending Jacksonville Center
01:35PM 29.2753 -81.1236 195° South 308 354 9,500 -2,640 Descending Jacksonville Center
01:35PM 29.2336 -81.1436 203° Southwest 301 346 7,900 -2,640 Descending Jacksonville Center
01:36PM 29.2175 -81.1725 237° Southwest 270 311 7,100 -2,520 Descending Jacksonville Center
01:36PM 29.1972 -81.2181 243° Southwest 268 308 5,400 -2,700 Descending Jacksonville Center
01:37PM 29.1828 -81.2492 242° Southwest 262 302 4,400 -2,280 Descending Jacksonville Center
01:37PM 29.1497 -81.2758 215° Southwest 242 278 3,100 -1,620 Descending Jacksonville Center
01:38PM 29.1247 -81.2667 162° South 226 260 2,800 -720 Descending Jacksonville Center
01:38PM 29.1036 -81.2575 159° South 178 205 2,400 -1,140 Descending Jacksonville Center
01:39PM 29.1197 -81.2050 71° East 185 213 1,700 21,600 Descending Jacksonville Center
01:39PM 29.0581 -81.2750 225° Southwest 178 205 24,000 -420 Climbing Jacksonville Center
01:40PM 29.1419 -81.1569 51° Northeast 152 175 1,300  Descending Jacksonville Center
01:40PM 29.0103 -81.2947 222° Southwest 178 205 24,000 -540 Climbing Jacksonville Center
01:41PM 29.1561 -81.1139 47° Northeast 147 169 800 -55,680 Descending Jacksonville Center
01:43PM 29.1667 -81.0500 75° East  Level FlightAware Approximate
01:50PM 29.1799 -81.0581 75° East  Level Estimated
01:51PM 29.1799 -81.0581 251° West  Level Estimated
01:52PM 29.1799 -81.0581 75° East  Level Estimated